Accueil
METAR-TAF:

METAR-TAF

Aéroports :

Sparta Community Airport (Hunter Field)

Sparta, Illinois, États-Unis

latitude: 38-08-56N, longitude: 089-41-55W, altitude: 164 m

Observation

Le bulletin a été fait il y a 16 minutes, à 03:40 UTC
Vent 8 kt de nord/nord-ouest avec des rafales jusqu'à 19 kt
Température 17°C
Humidité 72%
Pression 1010 hPa
Visibilité: 16.1 km
Nuages fragmentés à une hauteur de 3800 ft
Nuages fragmentés à une hauteur de 6000 ft
Ciel couvert à une hauteur de 12000 ft

METAR: KSAR 280340Z AUTO 33008G19KT 10SM BKN038 BKN060 OVC120 17/12 A2982 RMK AO2

Heure: 22:56 (03:56 UTC)


TAF: absent

Observations et prévisions météorologiques de plus de 4000 aéroports (messages METAR et TAF).

Les stations disponibles sont représentées par des disques jaunes et rouges sur la carte.

Passer la souris dessus pour voir le nom de la station.

Cliquer dessus pour voir les observations et prévisions météorologiques.

Pour changer de carte: cliquez sur les boutons verts avec une croix noire pour zoomer, sur le bouton vert avec un tiret pour effectuer un zoom arrière, ou sur les flèches vertes pour les cartes adjacentes.


METAR-TAF: